createdAt,value
2018-07-14T00:04:41.003Z,4.77
2018-07-14T00:10:35.967Z,4.33
2018-07-14T00:16:30.966Z,4.65
2018-07-14T00:22:25.976Z,4.75
2018-07-14T00:28:21.006Z,4.82
2018-07-14T00:34:15.993Z,4.33
2018-07-14T00:40:10.978Z,5.13
2018-07-14T00:46:06.036Z,4.73
2018-07-14T00:52:00.984Z,4.51
2018-07-14T00:57:55.993Z,5.96
2018-07-14T01:03:50.969Z,4.87
2018-07-14T01:09:45.982Z,5.23
2018-07-14T01:15:40.989Z,5.11
2018-07-14T01:21:36.041Z,4.88
2018-07-14T01:27:31.007Z,4.68
2018-07-14T01:33:26.011Z,5.36
2018-07-14T01:39:21.058Z,4.69
2018-07-14T01:45:16.065Z,4.59
2018-07-14T01:51:11.028Z,4.76
2018-07-14T01:57:06.021Z,5.13
2018-07-14T02:03:01.024Z,5.07
2018-07-14T02:08:56.004Z,4.87
2018-07-14T02:14:51.059Z,4.39
2018-07-14T02:20:46.020Z,5.2
2018-07-14T02:26:41.033Z,5.08
2018-07-14T02:32:36.032Z,5.13
2018-07-14T02:38:31.067Z,4.6
2018-07-14T02:44:26.038Z,4.77
2018-07-14T02:50:21.045Z,5.34
2018-07-14T02:56:16.050Z,4.72
2018-07-14T03:02:11.072Z,4.73
2018-07-14T03:08:06.057Z,4.53
2018-07-14T03:14:01.053Z,5.47
2018-07-14T03:19:56.092Z,4.96
2018-07-14T03:25:51.086Z,4.98
2018-07-14T03:31:46.054Z,4.62
2018-07-14T03:37:41.084Z,5.3
2018-07-14T03:43:36.091Z,6.11
2018-07-14T03:49:31.078Z,6.1
2018-07-14T03:55:26.103Z,5.45
2018-07-14T04:01:21.089Z,5.81
2018-07-14T04:07:16.075Z,5.35
2018-07-14T04:13:11.141Z,6.53
2018-07-14T04:19:06.100Z,5.92
2018-07-14T04:25:01.086Z,5.57
2018-07-14T04:30:56.145Z,5.73
2018-07-14T04:36:51.123Z,5.63
2018-07-14T04:42:46.112Z,6.1
2018-07-14T04:48:41.174Z,5.36
2018-07-14T04:54:36.106Z,5.67
2018-07-14T05:00:31.151Z,14.48
2018-07-14T05:06:26.176Z,7.65
2018-07-14T05:12:21.129Z,6.73
2018-07-14T05:18:16.177Z,7.78
2018-07-14T05:24:11.122Z,6.34
2018-07-14T05:30:06.122Z,5.72
2018-07-14T05:36:01.180Z,6.2
2018-07-14T05:41:56.128Z,6.17
2018-07-14T05:47:51.162Z,5.7
2018-07-14T05:53:46.164Z,6.42
2018-07-14T05:59:41.144Z,6.1
2018-07-14T06:05:36.215Z,5.6
2018-07-14T06:11:31.193Z,5.37
2018-07-14T06:17:26.277Z,4.79
2018-07-14T06:23:21.210Z,5.25
2018-07-14T06:29:16.189Z,5.23
2018-07-14T06:35:11.181Z,5.63
2018-07-14T06:41:06.172Z,4.99
2018-07-14T06:47:01.176Z,4.67
2018-07-14T06:52:56.217Z,4.75
2018-07-14T06:58:51.198Z,5.02
2018-07-14T07:04:46.205Z,4.82
2018-07-14T07:10:41.197Z,4.78
2018-07-14T07:16:36.208Z,4.11
2018-07-14T07:22:31.213Z,5.28
2018-07-14T07:28:26.227Z,5.09
2018-07-14T07:34:21.210Z,4.28
2018-07-14T07:40:16.234Z,4.59
2018-07-14T07:46:11.210Z,4
2018-07-14T07:52:06.257Z,3.7
2018-07-14T07:58:01.217Z,4.03
2018-07-14T08:03:56.266Z,4.36
2018-07-14T08:09:51.229Z,3.98
2018-07-14T08:15:46.230Z,3.76
2018-07-14T08:21:41.226Z,3.7
2018-07-14T08:27:36.325Z,4.35
2018-07-14T08:33:31.231Z,3.9
2018-07-14T08:39:26.283Z,4.19
2018-07-14T08:45:21.256Z,4.02
2018-07-14T08:51:16.345Z,3.67
2018-07-14T08:57:11.273Z,3.97
2018-07-14T09:03:06.257Z,3.85
2018-07-14T09:09:01.273Z,3.66
2018-07-14T09:14:56.298Z,3.97
2018-07-14T09:20:51.317Z,3.75
2018-07-14T09:26:46.271Z,4.04
2018-07-14T09:32:41.337Z,3.88
2018-07-14T09:38:36.272Z,3.56
2018-07-14T09:44:31.366Z,3.54
2018-07-14T09:50:26.327Z,3.43
2018-07-14T09:56:21.316Z,3.32
2018-07-14T10:02:16.342Z,3.56
2018-07-14T10:08:11.292Z,3.5
2018-07-14T10:14:06.321Z,3.49
2018-07-14T10:20:01.328Z,3.43
2018-07-14T10:25:56.428Z,3.17
2018-07-14T10:31:51.310Z,3.25
2018-07-14T10:37:46.310Z,3.08
2018-07-14T10:43:41.315Z,2.99
2018-07-14T10:49:36.311Z,3.36
2018-07-14T10:55:31.342Z,3.04
2018-07-14T11:01:26.344Z,2.99
2018-07-14T11:07:21.371Z,2.64
2018-07-14T11:13:16.348Z,2.59
2018-07-14T11:19:11.356Z,2.54
2018-07-14T11:25:06.392Z,3.06
2018-07-14T11:31:01.375Z,2.84
2018-07-14T11:36:56.361Z,3.06
2018-07-14T11:42:51.354Z,2.78
2018-07-14T11:48:46.373Z,2.99
2018-07-14T11:54:41.368Z,2.7
2018-07-14T12:00:36.389Z,2.6
2018-07-14T12:06:31.391Z,2.47
2018-07-14T12:12:26.367Z,3.18
2018-07-14T12:18:21.373Z,2.53
2018-07-14T12:24:16.411Z,2.12
2018-07-14T12:30:11.447Z,2.18
2018-07-14T12:36:06.390Z,2.29
2018-07-14T12:42:01.428Z,2.81
2018-07-14T12:47:56.406Z,2.15
2018-07-14T12:53:51.471Z,2.36
2018-07-14T12:59:46.419Z,2.21
2018-07-14T13:05:41.435Z,2.14
2018-07-14T13:11:36.410Z,2.08
2018-07-14T13:17:31.409Z,1.93
2018-07-14T13:23:26.407Z,1.82
2018-07-14T13:29:21.415Z,1.81
2018-07-14T13:35:16.436Z,1.81
2018-07-14T13:41:11.437Z,1.82
2018-07-14T13:47:06.485Z,1.92
2018-07-14T13:53:01.434Z,1.91
2018-07-14T13:58:56.438Z,1.98
2018-07-14T14:04:51.439Z,2.16
2018-07-14T14:10:46.425Z,2.47
2018-07-14T14:16:41.457Z,2.66
2018-07-14T14:22:36.442Z,2.44
2018-07-14T14:28:31.448Z,2.35
2018-07-14T14:34:26.466Z,2.64
2018-07-14T14:40:21.485Z,2.97
2018-07-14T14:46:16.474Z,2.38
2018-07-14T14:52:11.477Z,2.92
2018-07-14T14:58:06.493Z,2.97
2018-07-14T15:04:01.550Z,2.69
2018-07-14T15:09:56.478Z,2.88
2018-07-14T15:15:51.512Z,3.18
2018-07-14T15:21:46.502Z,3.02
2018-07-14T15:27:41.525Z,3.21
2018-07-14T15:33:36.590Z,3.48
2018-07-14T15:39:31.514Z,3.38
2018-07-14T15:45:26.514Z,3.41
2018-07-14T15:51:21.492Z,3.52
2018-07-14T15:57:16.533Z,3.64
2018-07-14T16:03:11.567Z,3.8
2018-07-14T16:09:06.495Z,3.88
2018-07-14T16:15:01.516Z,3.76
2018-07-14T16:20:56.536Z,3.67
2018-07-14T16:26:51.618Z,3.71
2018-07-14T16:32:46.575Z,4.54
2018-07-14T16:38:41.568Z,4.11
2018-07-14T16:44:36.531Z,3.67
2018-07-14T16:50:31.564Z,3.58
2018-07-14T16:56:26.558Z,4.02
2018-07-14T17:02:21.542Z,3.82
2018-07-14T17:08:16.579Z,3.73
2018-07-14T17:14:11.691Z,3.76
2018-07-14T17:20:06.567Z,3.58
2018-07-14T17:26:01.543Z,4.19
2018-07-14T17:31:56.590Z,3.42
2018-07-14T17:37:51.598Z,4.1
2018-07-14T17:43:46.647Z,3.73
2018-07-14T17:49:41.569Z,3.78
2018-07-14T17:55:36.580Z,3.44
2018-07-14T18:01:31.585Z,2.88
2018-07-14T18:07:26.582Z,3.17
2018-07-14T18:13:21.605Z,3.42
2018-07-14T18:19:16.611Z,3.3
2018-07-14T18:25:11.645Z,4.07
2018-07-14T18:31:06.616Z,3.9
2018-07-14T18:37:01.643Z,3.13
2018-07-14T18:42:56.630Z,2.72
2018-07-14T18:48:51.598Z,3.09
2018-07-14T18:54:46.620Z,3.34
2018-07-14T19:00:45.791Z,3.67
2018-07-14T19:06:40.827Z,3.86
2018-07-14T19:12:35.654Z,3.77
2018-07-14T19:18:30.688Z,3.93
2018-07-14T19:24:21.648Z,4.11
2018-07-14T19:30:16.696Z,3.79
2018-07-14T19:36:11.689Z,4.31
2018-07-14T19:42:06.701Z,3.57
2018-07-14T19:48:01.648Z,4.17
2018-07-14T19:53:56.660Z,4.2
2018-07-14T19:59:51.644Z,3.77
2018-07-14T20:05:46.692Z,4.33
2018-07-14T20:11:41.809Z,4.27
2018-07-14T20:17:36.694Z,4.37
2018-07-14T20:23:31.726Z,4.02
2018-07-14T20:29:26.704Z,4.65
2018-07-14T20:35:21.699Z,4.84
2018-07-14T20:41:16.784Z,4.64
2018-07-14T20:47:11.684Z,4.37
2018-07-14T20:53:06.697Z,4.62
2018-07-14T20:59:01.687Z,5.23
2018-07-14T21:04:56.695Z,4.4
2018-07-14T21:10:51.726Z,4.17
2018-07-14T21:16:46.813Z,7.07
2018-07-14T21:22:41.737Z,7.07
2018-07-14T21:28:36.700Z,7.11
2018-07-14T21:34:31.703Z,5.94
2018-07-14T21:40:26.743Z,8.16
2018-07-14T21:46:21.714Z,6.07
2018-07-14T21:52:16.713Z,5.64
2018-07-14T21:58:11.746Z,6.67
2018-07-14T22:04:06.744Z,4.68
2018-07-14T22:10:01.760Z,5.41
2018-07-14T22:15:56.748Z,5.6
2018-07-14T22:21:51.747Z,5.27
2018-07-14T22:27:46.776Z,5.35
2018-07-14T22:33:41.742Z,5.07
2018-07-14T22:39:36.760Z,5.06
2018-07-14T22:45:31.779Z,5.42
2018-07-14T22:51:26.763Z,5.73
2018-07-14T22:57:21.808Z,6.73
2018-07-14T23:03:16.761Z,6.54
2018-07-14T23:09:11.761Z,6.15
2018-07-14T23:15:06.770Z,5.81
2018-07-14T23:21:01.815Z,6.37
2018-07-14T23:26:56.774Z,6.8
2018-07-14T23:32:51.786Z,6.91
2018-07-14T23:38:46.797Z,6.64
2018-07-14T23:44:41.807Z,6.62
2018-07-14T23:50:36.799Z,6.9
2018-07-14T23:56:31.789Z,6.4
